Time;durP1;ratioP1;P1;durP2;ratioP2;P2;SDS_P1;SDS_P2;PMS_P1;PMS_P2;Temp;Humidity;BMP_temperature;BMP_pressure;BME280_temperature;BME280_humidity;BME280_pressure;Samples;Min_cycle;Max_cycle;Signal;HPM_P1;HPM_P2
2023/12/19 00:02:06;;;;;;;0.68;0.68;;;;;;;0.89;100.00;95866.41;5023487;28;20299;-78
2023/12/19 00:04:34;;;;;;;0.25;0.25;;;;;;;0.83;100.00;95876.13;5019035;28;20258;-77
2023/12/19 00:07:01;;;;;;;0.40;0.40;;;;;;;0.68;100.00;95879.31;5022937;28;20588;-78
2023/12/19 00:09:27;;;;;;;3.45;2.15;;;;;;;0.61;100.00;95873.28;5022504;28;20612;-76
2023/12/19 00:11:54;;;;;;;0.40;0.40;;;;;;;0.46;100.00;95875.63;5018913;28;20255;-78
2023/12/19 00:14:22;;;;;;;0.30;0.30;;;;;;;0.38;100.00;95881.31;5020872;28;20244;-78
2023/12/19 00:16:49;;;;;;;0.22;0.22;;;;;;;0.42;100.00;95882.47;5022976;28;20708;-78
2023/12/19 00:19:16;;;;;;;8.07;3.25;;;;;;;0.62;100.00;95874.09;5024389;28;20205;-77
2023/12/19 00:21:43;;;;;;;4.20;2.67;;;;;;;0.76;100.00;95880.81;5023207;28;20215;-77
2023/12/19 00:24:10;;;;;;;5.43;2.42;;;;;;;0.81;100.00;95872.13;5021006;28;20566;-76
2023/12/19 00:26:37;;;;;;;4.43;3.08;;;;;;;0.85;100.00;95883.91;5020685;28;20270;-76
2023/12/19 00:29:04;;;;;;;1.45;1.13;;;;;;;0.76;100.00;95896.00;5021631;28;20212;-77
2023/12/19 00:31:32;;;;;;;0.40;0.40;;;;;;;0.88;100.00;95888.78;5023120;28;20228;-77
2023/12/19 00:33:59;;;;;;;5.22;3.33;;;;;;;0.94;100.00;95887.84;5023268;28;20205;-78
2023/12/19 00:36:25;;;;;;;5.63;3.03;;;;;;;0.85;100.00;95879.38;5020838;28;20571;-77
2023/12/19 00:38:52;;;;;;;9.35;3.30;;;;;;;0.81;100.00;95877.44;5019817;28;20236;-77
2023/12/19 00:41:19;;;;;;;7.65;3.03;;;;;;;0.85;100.00;95890.06;5022807;28;20228;-78
2023/12/19 00:43:46;;;;;;;4.43;3.08;;;;;;;0.88;100.00;95888.78;5022672;28;20275;-77
2023/12/19 00:46:13;;;;;;;6.60;3.15;;;;;;;0.82;100.00;95895.84;5022076;28;20262;-77
2023/12/19 00:48:41;;;;;;;0.40;0.40;;;;;;;0.91;100.00;95886.47;5019087;28;20244;-77
2023/12/19 00:51:12;;;;;;;0.30;0.30;;;;;;;0.96;100.00;95885.72;5020656;28;20207;-78
2023/12/19 00:53:39;;;;;;;1.60;1.50;;;;;;;0.73;100.00;95885.78;5019785;28;20309;-76
2023/12/19 00:56:08;;;;;;;0.63;0.63;;;;;;;0.70;100.00;95885.22;5021325;28;20290;-76
2023/12/19 00:58:36;;;;;;;0.28;0.28;;;;;;;0.69;100.00;95890.78;5021746;28;20200;-77
2023/12/19 01:01:03;;;;;;;0.43;0.43;;;;;;;0.64;100.00;95877.34;5023216;28;20208;-77
2023/12/19 01:08:33;;;;;;;0.40;0.40;;;;;;;0.80;100.00;95875.81;5012125;23;20241;-72
2023/12/19 01:11:00;;;;;;;0.35;0.35;;;;;;;0.83;100.00;95865.47;5006679;28;20206;-71
2023/12/19 01:13:27;;;;;;;0.22;0.22;;;;;;;0.93;100.00;95860.38;5012627;28;20568;-73
2023/12/19 01:15:54;;;;;;;0.20;0.20;;;;;;;1.03;100.00;95859.75;5004706;28;20218;-72
2023/12/19 01:18:21;;;;;;;0.70;0.52;;;;;;;0.97;100.00;95858.81;5006668;28;20208;-72
2023/12/19 01:20:48;;;;;;;0.28;0.28;;;;;;;0.99;100.00;95853.25;5004385;28;20205;-74
2023/12/19 01:23:15;;;;;;;0.20;0.20;;;;;;;1.00;100.00;95846.88;5010503;28;20263;-71
2023/12/19 01:25:44;;;;;;;2.78;1.42;;;;;;;1.02;100.00;95847.44;5006913;28;20595;-72
2023/12/19 01:28:11;;;;;;;0.45;0.45;;;;;;;0.94;100.00;95845.16;5004301;28;20205;-72
2023/12/19 01:30:38;;;;;;;0.20;0.20;;;;;;;0.80;100.00;95851.81;5010637;28;20275;-73
2023/12/19 01:33:05;;;;;;;0.20;0.20;;;;;;;0.91;100.00;95858.97;5004028;28;20228;-73
2023/12/19 01:35:32;;;;;;;0.30;0.30;;;;;;;0.74;100.00;95858.09;5007053;28;20339;-73
2023/12/19 01:37:58;;;;;;;0.20;0.20;;;;;;;0.76;100.00;95858.66;5004194;28;20252;-72
2023/12/19 01:40:28;;;;;;;0.50;0.50;;;;;;;0.64;100.00;95851.50;5005540;28;20212;-73
2023/12/19 01:42:56;;;;;;;0.20;0.20;;;;;;;0.48;100.00;95854.88;5005711;28;20205;-71
2023/12/19 01:45:26;;;;;;;0.40;0.40;;;;;;;0.46;100.00;95864.97;5007067;28;20673;-74
2023/12/19 01:47:53;;;;;;;2.50;2.30;;;;;;;0.42;100.00;95863.00;5003562;28;20209;-74
2023/12/19 01:50:20;;;;;;;0.40;0.40;;;;;;;0.43;100.00;95857.44;5010024;28;20205;-73
2023/12/19 01:52:52;;;;;;;0.20;0.20;;;;;;;0.42;100.00;95853.16;5003680;28;20205;-74
2023/12/19 01:55:20;;;;;;;0.20;0.20;;;;;;;0.41;100.00;95848.84;5010733;28;20228;-73
2023/12/19 01:57:48;;;;;;;0.20;0.20;;;;;;;0.35;100.00;95841.81;5005896;28;20250;-73
2023/12/19 02:00:17;;;;;;;0.40;0.40;;;;;;;0.41;100.00;95848.84;5008797;28;20663;-73
2023/12/19 02:02:45;;;;;;;0.25;0.25;;;;;;;0.36;100.00;95832.78;5003615;28;20295;-73
2023/12/19 02:05:12;;;;;;;1.80;0.95;;;;;;;0.36;100.00;95838.09;5015361;28;20564;-72
2023/12/19 02:07:39;;;;;;;7.78;3.58;;;;;;;0.50;100.00;95828.81;5002847;28;20253;-72
2023/12/19 02:10:07;;;;;;;5.05;3.13;;;;;;;0.61;100.00;95829.81;5003828;28;20564;-73
2023/12/19 02:12:34;;;;;;;0.95;0.85;;;;;;;0.63;100.00;95828.56;5002331;28;20216;-73
2023/12/19 02:15:01;;;;;;;2.10;1.38;;;;;;;0.49;100.00;95826.38;5003289;28;20229;-74
2023/12/19 02:17:29;;;;;;;1.40;1.38;;;;;;;0.21;100.00;95840.44;5001887;28;20252;-71
2023/12/19 02:19:56;;;;;;;0.22;0.22;;;;;;;0.18;100.00;95836.38;4998973;28;20212;-73
2023/12/19 02:22:22;;;;;;;0.45;0.45;;;;;;;0.22;100.00;95836.72;5003087;28;20654;-73
2023/12/19 02:24:51;;;;;;;0.30;0.30;;;;;;;0.20;100.00;95834.28;5002528;28;20241;-72
2023/12/19 02:27:20;;;;;;;0.57;0.57;;;;;;;0.37;100.00;95839.72;5004675;28;20209;-72
2023/12/19 02:29:47;;;;;;;1.02;1.00;;;;;;;0.41;100.00;95835.53;5002878;28;20206;-72
2023/12/19 02:32:14;;;;;;;0.77;0.77;;;;;;;0.36;100.00;95827.44;5000859;28;20205;-72
2023/12/19 02:34:40;;;;;;;2.10;1.90;;;;;;;0.13;100.00;95832.81;5002612;28;20208;-71
2023/12/19 02:37:07;;;;;;;7.03;3.13;;;;;;;0.20;100.00;95822.81;5004463;28;20208;-72
2023/12/19 02:39:34;;;;;;;6.95;3.28;;;;;;;0.33;100.00;95822.56;5002130;28;20232;-72
2023/12/19 02:42:03;;;;;;;7.57;3.67;;;;;;;0.13;100.00;95838.94;4998387;28;20212;-72
2023/12/19 02:44:29;;;;;;;5.93;3.70;;;;;;;-0.21;100.00;95837.88;5002050;28;20209;-71
2023/12/19 02:46:56;;;;;;;6.28;3.28;;;;;;;-0.16;100.00;95835.34;5003454;28;20209;-72
2023/12/19 02:49:23;;;;;;;8.25;3.40;;;;;;;0.00;100.00;95829.31;5001138;28;20212;-72
2023/12/19 02:51:52;;;;;;;0.43;0.43;;;;;;;0.16;100.00;95827.00;5000117;28;20211;-72
2023/12/19 02:54:19;;;;;;;0.20;0.20;;;;;;;0.35;100.00;95820.50;5003124;28;20322;-73
2023/12/19 02:56:46;;;;;;;1.90;1.80;;;;;;;0.28;100.00;95819.78;5000572;28;20228;-73
2023/12/19 02:59:14;;;;;;;0.40;0.40;;;;;;;0.28;100.00;95819.78;5002387;28;20570;-73
2023/12/19 03:01:46;;;;;;;0.77;0.77;;;;;;;0.32;100.00;95816.44;5000559;28;20205;-73
2023/12/19 03:04:16;;;;;;;1.85;1.23;;;;;;;0.02;100.00;95820.28;5004385;28;20623;-74
2023/12/19 03:06:44;;;;;;;0.55;0.52;;;;;;;0.08;100.00;95820.16;5007555;28;20232;-73
2023/12/19 03:09:11;;;;;;;1.38;1.27;;;;;;;0.25;100.00;95810.44;5007392;28;20233;-73
2023/12/19 03:11:38;;;;;;;0.30;0.30;;;;;;;0.31;100.00;95814.00;5003094;28;20201;-72
2023/12/19 03:14:05;;;;;;;0.90;0.52;;;;;;;0.37;100.00;95805.09;5002979;28;20292;-72
2023/12/19 03:16:34;;;;;;;0.38;0.38;;;;;;;0.47;100.00;95815.94;5005148;28;20218;-73
2023/12/19 03:19:00;;;;;;;0.35;0.35;;;;;;;0.34;100.00;95821.53;5004376;28;20205;-72
2023/12/19 03:21:27;;;;;;;0.20;0.20;;;;;;;0.06;100.00;95832.09;5004841;28;20248;-73
2023/12/19 03:23:56;;;;;;;0.20;0.20;;;;;;;-0.22;100.00;95833.59;5003759;28;20675;-72
2023/12/19 03:26:23;;;;;;;1.38;1.27;;;;;;;-0.16;100.00;95822.03;5003022;28;20217;-72
2023/12/19 03:28:49;;;;;;;0.40;0.40;;;;;;;0.03;100.00;95819.22;5006328;28;20899;-73
2023/12/19 03:31:16;;;;;;;0.93;0.93;;;;;;;0.04;100.00;95824.34;5003630;28;20562;-71
2023/12/19 03:33:44;;;;;;;0.50;0.50;;;;;;;0.14;100.00;95818.41;5005766;28;20665;-73
2023/12/19 03:36:11;;;;;;;0.55;0.55;;;;;;;0.06;100.00;95819.59;5006681;28;20593;-73
2023/12/19 03:38:38;;;;;;;0.90;0.90;;;;;;;0.23;100.00;95817.03;5005010;28;20565;-73
2023/12/19 03:41:06;;;;;;;0.25;0.25;;;;;;;0.40;100.00;95809.94;5007054;28;20659;-73
2023/12/19 03:43:34;;;;;;;0.25;0.25;;;;;;;0.21;100.00;95813.78;5003685;28;20209;-73
2023/12/19 03:46:04;;;;;;;0.60;0.60;;;;;;;0.21;100.00;95808.47;5002990;28;20205;-72
2023/12/19 03:48:31;;;;;;;4.20;2.55;;;;;;;0.18;100.00;95814.25;5003508;28;20272;-72
2023/12/19 03:50:59;;;;;;;5.80;3.50;;;;;;;-0.10;100.00;95815.75;5005047;28;20204;-72
2023/12/19 03:53:26;;;;;;;10.45;4.38;;;;;;;0.06;100.00;95816.13;5004590;28;20569;-72
2023/12/19 03:55:52;;;;;;;6.40;3.08;;;;;;;-0.19;100.00;95808.38;5003261;28;20220;-72
2023/12/19 03:58:19;;;;;;;5.82;3.13;;;;;;;0.05;100.00;95799.31;5004453;28;20910;-71
2023/12/19 04:00:46;;;;;;;6.20;3.10;;;;;;;0.23;100.00;95799.19;5002801;28;20515;-72
2023/12/19 04:03:13;;;;;;;5.93;3.03;;;;;;;0.23;100.00;95790.41;5003118;28;20200;-72
2023/12/19 04:05:40;;;;;;;2.80;2.42;;;;;;;0.18;100.00;95792.94;5003167;28;20213;-71
2023/12/19 04:08:08;;;;;;;5.00;2.50;;;;;;;0.17;100.00;95780.66;5004804;28;20648;-72
2023/12/19 04:10:35;;;;;;;6.28;2.38;;;;;;;0.07;100.00;95793.75;5007047;28;20205;-72
2023/12/19 04:13:02;;;;;;;4.78;2.78;;;;;;;-0.11;100.00;95792.84;5002274;28;20669;-72
2023/12/19 04:15:30;;;;;;;5.57;2.85;;;;;;;4.41;100.00;95767.88;5003416;28;20232;-74
2023/12/19 04:17:57;;;;;;;12.32;5.90;;;;;;;3.07;100.00;95768.19;5004535;28;20193;-73
2023/12/19 04:20:23;;;;;;;14.43;7.35;;;;;;;2.06;100.00;95781.91;5000576;28;20264;-72
2023/12/19 04:22:50;;;;;;;7.22;3.60;;;;;;;1.19;100.00;95789.63;5005174;28;20219;-73
2023/12/19 04:25:19;;;;;;;0.82;0.65;;;;;;;0.45;100.00;95785.25;5004932;28;20232;-73
2023/12/19 04:27:45;;;;;;;0.82;0.68;;;;;;;0.26;100.00;95790.75;5001832;28;20205;-72
2023/12/19 04:30:12;;;;;;;0.88;0.57;;;;;;;0.53;100.00;95799.03;5004196;28;20219;-73
2023/12/19 04:32:40;;;;;;;1.17;1.17;;;;;;;0.45;100.00;95794.03;5007466;28;20728;-72
2023/12/19 04:35:08;;;;;;;0.98;0.98;;;;;;;0.48;100.00;95798.91;5005683;28;20204;-73
2023/12/19 04:37:35;;;;;;;3.40;3.13;;;;;;;0.23;100.00;95817.03;5001797;28;20209;-72
2023/12/19 04:40:03;;;;;;;0.60;0.60;;;;;;;0.01;100.00;95816.81;5003086;28;20205;-73
2023/12/19 04:42:34;;;;;;;0.20;0.20;;;;;;;-0.15;100.00;95815.66;5005626;28;20213;-72
2023/12/19 04:45:03;;;;;;;0.50;0.50;;;;;;;-0.11;100.00;95814.13;5010721;28;20220;-73
2023/12/19 04:47:31;;;;;;;0.30;0.30;;;;;;;-0.08;100.00;95821.69;5007999;28;20201;-73
2023/12/19 04:50:03;;;;;;;0.20;0.20;;;;;;;-0.07;100.00;95823.28;5002772;28;20578;-73
2023/12/19 04:52:40;;;;;;;0.22;0.22;;;;;;;-0.09;100.00;95822.72;5015591;28;20219;-73
2023/12/19 04:55:07;;;;;;;0.77;0.77;;;;;;;0.10;100.00;95825.28;5011377;28;20291;-72
2023/12/19 04:57:35;;;;;;;0.20;0.20;;;;;;;0.27;100.00;95824.31;5006372;28;20253;-74
2023/12/19 05:00:04;;;;;;;0.70;0.70;;;;;;;0.12;100.00;95826.66;5007333;28;20209;-73
2023/12/19 05:02:31;;;;;;;7.30;3.28;;;;;;;0.15;100.00;95831.50;5000932;28;20541;-73
2023/12/19 05:04:58;;;;;;;8.88;4.38;;;;;;;0.08;100.00;95835.34;4999831;28;20255;-74
2023/12/19 05:07:24;;;;;;;4.82;2.78;;;;;;;-0.09;100.00;95830.69;5003777;28;20249;-72
2023/12/19 05:09:51;;;;;;;8.45;3.35;;;;;;;0.07;100.00;95828.38;5004009;28;20204;-74
2023/12/19 05:12:19;;;;;;;2.53;0.82;;;;;;;0.12;100.00;95831.19;4998012;28;20305;-73
2023/12/19 05:14:47;;;;;;;4.30;2.08;;;;;;;0.21;100.00;95819.13;5010277;28;20275;-73
2023/12/19 05:17:14;;;;;;;0.22;0.22;;;;;;;0.10;100.00;95830.59;5011954;28;20585;-75
2023/12/19 05:19:41;;;;;;;0.30;0.30;;;;;;;-0.01;100.00;95825.06;5011804;28;20734;-73
2023/12/19 05:22:08;;;;;;;1.02;1.02;;;;;;;0.15;100.00;95828.03;5011392;28;20232;-74
2023/12/19 05:24:37;;;;;;;0.60;0.60;;;;;;;0.10;100.00;95827.94;4992696;28;20300;-73
2023/12/19 05:27:05;;;;;;;0.50;0.50;;;;;;;0.15;100.00;95830.69;4993170;28;20213;-73
2023/12/19 05:29:32;;;;;;;0.20;0.20;;;;;;;0.03;100.00;95824.56;4997916;28;20240;-74
2023/12/19 05:32:00;;;;;;;1.90;1.05;;;;;;;-0.08;100.00;95827.00;4996322;28;20206;-74
2023/12/19 05:34:27;;;;;;;12.45;4.10;;;;;;;-0.24;100.00;95833.00;4992503;28;20218;-74
2023/12/19 05:36:54;;;;;;;6.55;2.72;;;;;;;-0.18;100.00;95837.41;4992842;28;20244;-74
2023/12/19 05:39:21;;;;;;;3.20;2.53;;;;;;;0.01;100.00;95835.44;4992740;28;20257;-74
2023/12/19 05:41:48;;;;;;;0.20;0.20;;;;;;;0.02;100.00;95836.25;4992660;28;20209;-72
2023/12/19 05:44:16;;;;;;;0.93;0.90;;;;;;;-0.05;100.00;95837.19;4992512;28;20241;-72
2023/12/19 05:46:43;;;;;;;8.18;3.53;;;;;;;0.01;100.00;95835.44;4993069;28;20241;-74
2023/12/19 05:49:11;;;;;;;8.40;3.95;;;;;;;0.09;100.00;95836.97;4992689;28;20201;-74
2023/12/19 05:51:38;;;;;;;12.65;5.85;;;;;;;0.18;100.00;95835.56;4992895;28;20214;-73
2023/12/19 05:54:06;;;;;;;1.40;1.30;;;;;;;0.23;100.00;95838.34;4999845;28;20225;-73
2023/12/19 05:56:33;;;;;;;0.50;0.50;;;;;;;0.18;100.00;95840.88;5011696;28;20237;-73
2023/12/19 05:59:00;;;;;;;1.10;1.10;;;;;;;0.13;100.00;95844.28;5012169;28;20221;-73
2023/12/19 06:01:27;;;;;;;3.53;1.88;;;;;;;0.22;100.00;95826.06;5006931;28;20608;-74
2023/12/19 06:03:54;;;;;;;1.02;0.95;;;;;;;0.27;100.00;95828.84;4992490;28;20217;-73
2023/12/19 06:06:23;;;;;;;0.22;0.22;;;;;;;0.40;100.00;95828.59;4992053;28;20662;-74
2023/12/19 06:08:49;;;;;;;0.70;0.70;;;;;;;0.24;100.00;95819.47;4992122;28;20249;-73
2023/12/19 06:11:25;;;;;;;1.60;1.30;;;;;;;0.48;100.00;95814.91;4991849;28;20227;-73
2023/12/19 06:13:52;;;;;;;0.65;0.65;;;;;;;1.01;100.00;95816.47;4992439;28;20243;-73
2023/12/19 06:16:19;;;;;;;0.75;0.75;;;;;;;1.00;100.00;95817.53;4991858;28;20233;-73
2023/12/19 06:18:46;;;;;;;0.30;0.30;;;;;;;1.16;100.00;95816.78;4992179;28;20220;-74
2023/12/19 06:21:13;;;;;;;0.35;0.35;;;;;;;1.49;100.00;95804.53;4996200;28;20699;-73
2023/12/19 06:23:42;;;;;;;0.65;0.65;;;;;;;1.73;100.00;95800.66;5003069;28;20213;-73
2023/12/19 06:26:08;;;;;;;2.47;2.35;;;;;;;1.21;100.00;95803.53;5009865;28;20208;-73
2023/12/19 06:28:35;;;;;;;2.45;2.17;;;;;;;0.75;100.00;95811.72;5000359;28;20235;-73
2023/12/19 06:31:02;;;;;;;1.27;1.00;;;;;;;0.89;100.00;95807.72;4992477;28;20289;-73
2023/12/19 06:33:29;;;;;;;0.50;0.50;;;;;;;0.80;100.00;95807.31;4991961;28;20220;-73
2023/12/19 06:35:56;;;;;;;3.72;2.25;;;;;;;0.76;100.00;95816.00;4992104;28;20221;-73
2023/12/19 06:38:22;;;;;;;3.28;1.92;;;;;;;0.82;100.00;95809.72;4991875;28;20218;-74
2023/12/19 06:41:04;;;;;;;2.78;2.40;;;;;;;1.01;100.00;95819.16;4991906;28;20202;-72
2023/12/19 06:43:31;;;;;;;0.75;0.75;;;;;;;1.26;100.00;95805.47;5006467;28;20197;-73
2023/12/19 06:45:58;;;;;;;0.50;0.50;;;;;;;1.38;100.00;95803.53;5003764;28;20222;-74
2023/12/19 06:48:25;;;;;;;6.40;2.40;;;;;;;1.27;100.00;95799.88;4992741;28;20209;-73
2023/12/19 06:50:52;;;;;;;0.77;0.77;;;;;;;1.43;100.00;95800.97;4999440;28;20221;-73
2023/12/19 06:53:18;;;;;;;0.75;0.75;;;;;;;1.54;100.00;95807.28;4998225;28;20220;-74
2023/12/19 06:55:45;;;;;;;0.35;0.35;;;;;;;1.59;100.00;95815.38;5011687;28;20223;-74
2023/12/19 06:58:13;;;;;;;2.85;2.58;;;;;;;1.58;100.00;95813.75;5011501;28;20239;-74
2023/12/19 07:00:40;;;;;;;6.90;2.47;;;;;;;1.69;100.00;95815.53;5009704;28;20961;-74
2023/12/19 07:03:07;;;;;;;0.82;0.82;;;;;;;1.64;100.00;95812.81;4992048;28;20209;-74
2023/12/19 07:05:35;;;;;;;6.47;4.07;;;;;;;1.49;100.00;95815.22;4991418;28;20296;-74
2023/12/19 07:08:02;;;;;;;1.17;1.17;;;;;;;1.56;100.00;95818.53;4998994;28;20315;-73
2023/12/19 07:10:29;;;;;;;0.52;0.43;;;;;;;1.84;100.00;95814.97;4998994;28;20216;-73
2023/12/19 07:12:56;;;;;;;2.47;2.28;;;;;;;1.76;100.00;95826.88;5006756;28;20217;-74
2023/12/19 07:15:25;;;;;;;3.83;1.38;;;;;;;1.91;100.00;95821.78;5011169;28;20601;-74
2023/12/19 07:17:54;;;;;;;1.30;1.25;;;;;;;2.03;100.00;95825.19;5009874;28;20279;-73
2023/12/19 07:20:21;;;;;;;2.50;2.30;;;;;;;2.15;100.00;95825.09;5000521;28;20220;-73
2023/12/19 07:22:48;;;;;;;0.28;0.28;;;;;;;2.31;100.00;95831.47;5000844;28;20979;-72
2023/12/19 07:25:15;;;;;;;0.38;0.38;;;;;;;2.06;100.00;95838.03;5002356;28;20236;-71
2023/12/19 07:27:42;;;;;;;1.48;1.40;;;;;;;2.24;100.00;95830.81;5002221;28;20202;-73
2023/12/19 07:30:09;;;;;;;3.90;1.08;;;;;;;2.39;100.00;95823.81;5002612;28;20300;-73
2023/12/19 07:32:38;;;;;;;2.15;2.00;;;;;;;2.53;100.00;95820.78;5000059;28;20549;-74
2023/12/19 07:35:07;;;;;;;1.73;1.60;;;;;;;2.47;100.00;95811.88;5000013;28;20205;-73
2023/12/19 07:37:34;;;;;;;1.00;1.00;;;;;;;2.58;100.00;95802.97;4998646;28;20720;-73
2023/12/19 07:40:00;;;;;;;9.85;3.95;;;;;;;2.66;100.00;95799.84;5011714;28;20236;-73
2023/12/19 07:42:27;;;;;;;0.57;0.57;;;;;;;2.65;100.00;95797.41;4993282;28;20265;-73
2023/12/19 07:44:54;;;;;;;0.82;0.63;;;;;;;2.61;100.00;95791.75;4991353;28;20236;-73
2023/12/19 07:47:22;;;;;;;1.23;1.17;;;;;;;2.73;100.00;95776.38;4993073;28;20217;-74
2023/12/19 07:49:50;;;;;;;3.13;1.50;;;;;;;2.82;100.00;95780.25;4995439;28;20233;-75
2023/12/19 07:52:17;;;;;;;0.55;0.52;;;;;;;3.12;100.00;95781.63;4994746;28;20535;-74
2023/12/19 07:54:44;;;;;;;2.00;1.20;;;;;;;3.06;100.00;95785.31;5008023;28;20205;-76
2023/12/19 07:57:11;;;;;;;2.55;2.35;;;;;;;3.36;100.00;95782.94;5001175;28;20232;-75
2023/12/19 07:59:37;;;;;;;1.48;1.42;;;;;;;3.34;99.53;95785.06;5012725;28;20546;-74
2023/12/19 08:02:04;;;;;;;1.40;0.88;;;;;;;3.37;99.24;95779.19;5011980;28;20689;-76
2023/12/19 08:04:32;;;;;;;1.02;0.95;;;;;;;3.34;98.88;95774.34;5001269;28;20210;-75
2023/12/19 08:07:02;;;;;;;2.00;1.48;;;;;;;3.34;99.68;95774.34;5014631;28;20600;-74
2023/12/19 08:09:29;;;;;;;1.73;1.63;;;;;;;3.35;98.78;95773.28;4999578;28;20264;-75
2023/12/19 08:11:57;;;;;;;2.45;1.70;;;;;;;2.97;99.80;95774.25;5006065;28;20251;-75
2023/12/19 08:14:24;;;;;;;1.00;1.00;;;;;;;2.99;99.61;95776.69;5012977;28;20267;-75
2023/12/19 08:16:51;;;;;;;0.65;0.65;;;;;;;3.18;100.00;95769.91;5013006;28;20233;-76
2023/12/19 08:19:18;;;;;;;1.00;1.00;;;;;;;2.99;100.00;95771.31;5012640;28;20577;-73
2023/12/19 08:21:48;;;;;;;1.48;1.45;;;;;;;2.99;100.00;95776.69;5010978;28;20209;-75
2023/12/19 08:24:17;;;;;;;5.40;4.30;;;;;;;2.70;99.81;95786.78;5012961;28;20607;-76
2023/12/19 08:26:47;;;;;;;2.45;2.33;;;;;;;2.68;100.00;95768.31;5012824;28;20208;-75
2023/12/19 08:29:14;;;;;;;4.07;2.03;;;;;;;2.95;100.00;95776.38;5012712;28;20755;-74
2023/12/19 08:31:41;;;;;;;3.15;2.15;;;;;;;2.98;98.83;95775.06;5019177;28;20215;-75
2023/12/19 08:34:08;;;;;;;1.42;1.33;;;;;;;2.79;100.00;95772.69;5011130;28;20483;-76
2023/12/19 08:36:35;;;;;;;2.97;2.75;;;;;;;2.98;100.00;95767.03;5002669;28;20665;-76
2023/12/19 08:39:06;;;;;;;0.65;0.65;;;;;;;2.85;100.00;95757.53;5012658;28;20251;-75
2023/12/19 08:41:35;;;;;;;1.25;1.20;;;;;;;3.17;100.00;95750.34;5017879;28;20287;-74
2023/12/19 08:44:02;;;;;;;1.08;1.08;;;;;;;3.20;99.95;95747.16;5014122;28;20241;-76
2023/12/19 08:46:29;;;;;;;3.78;2.90;;;;;;;3.57;100.00;95731.16;5011097;28;20225;-76
2023/12/19 08:48:56;;;;;;;2.75;2.55;;;;;;;4.08;98.44;95726.16;5004038;28;20205;-75
2023/12/19 08:51:25;;;;;;;1.45;1.15;;;;;;;4.20;97.20;95724.06;5004882;28;20560;-75
2023/12/19 08:53:52;;;;;;;0.77;0.75;;;;;;;4.46;96.08;95722.31;4996983;28;20772;-75
2023/12/19 08:56:19;;;;;;;0.68;0.68;;;;;;;4.17;95.56;95719.22;5011655;28;20212;-77
2023/12/19 08:58:48;;;;;;;5.60;1.95;;;;;;;4.23;96.43;95712.84;5010752;28;20235;-75
2023/12/19 09:01:15;;;;;;;2.42;2.05;;;;;;;4.70;96.06;95705.75;5002276;28;20201;-76
2023/12/19 09:03:44;;;;;;;3.33;2.15;;;;;;;5.09;95.40;95698.84;5005232;28;20228;-77
2023/12/19 09:06:11;;;;;;;8.80;3.35;;;;;;;4.80;93.69;95701.22;4992315;28;20623;-76
2023/12/19 09:08:37;;;;;;;2.40;2.28;;;;;;;4.54;92.76;95702.22;4961020;28;1138091;-76
2023/12/19 09:11:05;;;;;;;0.95;0.95;;;;;;;4.57;92.51;95701.69;5012730;28;20255;-75
2023/12/19 09:13:33;;;;;;;0.90;0.75;;;;;;;4.59;92.97;95692.31;5000835;28;20209;-75
2023/12/19 09:16:04;;;;;;;1.00;1.00;;;;;;;4.55;92.14;95693.09;4999427;28;20694;-75
2023/12/19 09:18:31;;;;;;;1.55;1.25;;;;;;;4.36;91.40;95689.28;4993741;28;20241;-74
2023/12/19 09:20:58;;;;;;;1.73;1.55;;;;;;;4.26;91.55;95673.94;4992603;28;21026;-76
2023/12/19 09:23:24;;;;;;;1.00;1.00;;;;;;;4.40;92.22;95684.97;4993649;28;20210;-76
2023/12/19 09:25:51;;;;;;;2.28;1.55;;;;;;;4.63;92.37;95676.50;4994163;28;20213;-76
2023/12/19 09:28:18;;;;;;;2.40;2.20;;;;;;;4.63;90.88;95673.81;5003287;28;20213;-78
2023/12/19 09:30:45;;;;;;;0.47;0.47;;;;;;;4.77;90.84;95661.50;4998272;28;20217;-77
2023/12/19 09:33:13;;;;;;;2.05;0.88;;;;;;;5.08;90.54;95664.22;4994273;28;20598;-77
2023/12/19 09:35:41;;;;;;;2.30;1.65;;;;;;;5.10;89.92;95673.63;4994204;28;20670;-76
2023/12/19 09:38:08;;;;;;;2.45;1.85;;;;;;;5.20;88.29;95667.44;4993449;28;20348;-73
2023/12/19 09:40:35;;;;;;;0.88;0.88;;;;;;;4.87;88.98;95664.19;5010380;28;20209;-76
2023/12/19 09:43:02;;;;;;;5.18;3.88;;;;;;;4.60;90.47;95663.59;5002729;28;20213;-76
2023/12/19 09:45:29;;;;;;;0.80;0.80;;;;;;;4.63;90.75;95669.25;4993289;28;20229;-76
2023/12/19 09:48:00;;;;;;;5.82;3.03;;;;;;;4.63;89.38;95663.09;4993363;28;20562;-75
2023/12/19 09:50:29;;;;;;;1.67;1.58;;;;;;;4.26;90.10;95658.66;4993249;28;20304;-75
2023/12/19 09:52:57;;;;;;;4.00;2.78;;;;;;;4.43;91.07;95657.63;4992383;28;20206;-76
2023/12/19 09:55:26;;;;;;;2.70;1.98;;;;;;;4.58;90.66;95655.00;5010689;28;20216;-75
2023/12/19 09:57:54;;;;;;;0.50;0.50;;;;;;;4.55;91.26;95660.91;4999738;28;20233;-74
2023/12/19 10:00:22;;;;;;;2.63;2.42;;;;;;;4.67;89.71;95650.72;4992347;28;20221;-75
2023/12/19 10:02:49;;;;;;;2.72;2.35;;;;;;;4.70;89.79;95646.72;5008777;28;20559;-75
2023/12/19 10:05:16;;;;;;;4.28;4.03;;;;;;;4.70;89.78;95652.88;5005617;28;20213;-75
2023/12/19 10:07:47;;;;;;;3.85;1.95;;;;;;;4.79;90.00;95634.38;4992309;28;20252;-76
2023/12/19 10:10:14;;;;;;;8.40;2.33;;;;;;;4.90;89.60;95627.97;5000027;28;20260;-76
2023/12/19 10:12:49;;;;;;;1.42;1.33;;;;;;;4.97;89.29;95631.19;5012486;28;20298;-75
2023/12/19 10:15:16;;;;;;;1.70;1.60;;;;;;;5.09;89.29;95628.22;5011991;28;20270;-75
2023/12/19 10:18:03;;;;;;;1.75;0.90;;;;;;;5.17;88.96;95614.28;5011693;28;20596;-75
2023/12/19 10:20:30;;;;;;;1.52;1.42;;;;;;;5.11;88.56;95618.03;5012044;28;20204;-75
2023/12/19 10:23:04;;;;;;;2.17;1.98;;;;;;;5.06;89.77;95615.38;5012266;28;20223;-75
2023/12/19 10:25:31;;;;;;;0.30;0.30;;;;;;;5.02;90.20;95616.97;5012293;28;20589;-74
2023/12/19 10:28:07;;;;;;;4.70;0.93;;;;;;;5.08;89.46;95602.44;5012284;28;20205;-76
2023/12/19 10:30:34;;;;;;;13.25;4.03;;;;;;;5.06;89.39;95601.94;4998269;28;20220;-75
2023/12/19 10:33:01;;;;;;;0.95;0.95;;;;;;;5.09;89.16;95596.00;4993338;28;20213;-75
2023/12/19 10:35:36;;;;;;;5.53;1.83;;;;;;;5.17;90.00;95582.06;4992879;28;20298;-75
2023/12/19 10:38:05;;;;;;;1.65;1.30;;;;;;;5.70;90.38;95580.63;5001476;28;20294;-75
2023/12/19 10:40:32;;;;;;;1.70;1.60;;;;;;;5.90;88.61;95569.00;4996366;28;20260;-76
2023/12/19 10:43:00;;;;;;;0.57;0.57;;;;;;;6.33;87.60;95568.28;4992431;28;20236;-75
2023/12/19 10:45:26;;;;;;;2.72;2.47;;;;;;;6.52;86.64;95565.75;4995138;28;20292;-77
2023/12/19 10:47:53;;;;;;;0.85;0.85;;;;;;;6.25;85.15;95560.00;5002094;28;20315;-76
2023/12/19 10:50:21;;;;;;;1.90;1.75;;;;;;;6.41;84.98;95546.19;4992327;28;20213;-75
2023/12/19 10:52:51;;;;;;;4.32;1.77;;;;;;;6.34;85.98;95542.97;4991907;28;20213;-75
2023/12/19 10:55:21;;;;;;;4.78;3.10;;;;;;;6.36;85.61;95531.94;5009690;28;20256;-75
2023/12/19 10:57:50;;;;;;;3.42;1.95;;;;;;;6.39;85.39;95532.19;5011670;28;20631;-75
2023/12/19 11:00:22;;;;;;;11.23;3.88;;;;;;;6.45;85.41;95532.16;5011267;28;20271;-75
2023/12/19 11:03:05;;;;;;;2.70;2.53;;;;;;;6.47;85.44;95528.09;4995223;28;20709;-75
2023/12/19 11:05:39;;;;;;;1.73;1.63;;;;;;;6.47;85.53;95519.22;5000357;28;20603;-75
2023/12/19 11:08:12;;;;;;;0.75;0.75;;;;;;;6.54;85.93;95519.72;5010655;28;20255;-76
2023/12/19 11:10:42;;;;;;;1.13;1.13;;;;;;;6.56;86.90;95504.09;5011638;28;20205;-74
2023/12/19 11:13:12;;;;;;;3.47;1.60;;;;;;;6.55;85.75;95497.91;5011064;28;20209;-75
2023/12/19 11:15:45;;;;;;;2.38;1.05;;;;;;;6.67;85.53;95492.97;5011475;28;20286;-75
2023/12/19 11:18:19;;;;;;;0.85;0.85;;;;;;;6.61;85.30;95487.91;5011431;28;20340;-75
2023/12/19 11:20:53;;;;;;;0.57;0.57;;;;;;;6.82;84.98;95489.34;5011265;28;20665;-74
2023/12/19 11:23:43;;;;;;;1.88;1.77;;;;;;;6.83;84.87;95474.81;5015498;28;20205;-76
2023/12/19 11:26:21;;;;;;;0.57;0.57;;;;;;;6.70;84.90;95470.03;5015811;28;20259;-76
2023/12/19 11:28:48;;;;;;;1.20;1.15;;;;;;;6.76;85.21;95463.53;5015128;28;20221;-75
2023/12/19 11:31:29;;;;;;;5.38;2.22;;;;;;;6.87;84.88;95459.66;5015436;28;20209;-73
2023/12/19 11:33:56;;;;;;;1.75;1.48;;;;;;;6.75;84.37;95462.75;5014476;28;20259;-73
2023/12/19 11:36:23;;;;;;;0.98;0.88;;;;;;;6.58;85.48;95453.47;5014279;28;20236;-74
2023/12/19 11:38:50;;;;;;;2.55;2.20;;;;;;;6.57;85.35;95454.53;5014310;28;20244;-73
2023/12/19 11:41:39;;;;;;;3.13;2.42;;;;;;;6.53;85.79;95450.84;5014413;28;20217;-71
2023/12/19 11:44:06;;;;;;;0.30;0.30;;;;;;;6.67;85.62;95454.47;5009119;28;20210;-73